Historyczne dane pomiarowe

Dodano dane terminowe – wersja testowa.

Dane z okresu 1951-2019

Wersja bazy: 1.34 [2019-03-16, lista zmian], aktualizacja planowana na 2019-04-15

Dane meteo z obszaru Polski uzyskane na podstawie danych udostępnionych przez Instytut Meteorologii i Gospodarki Wodnej – Państwowy Instytut Badawczy.

 

Wybierz Datę:    

       

TemperaturaWilgotnośćWiatrCiśnienieOpadyŚniegCzas trwania zjawisk
 Stacja t tx tn tng RH VA  wxwx mslp ppp RRR   cm mm wxwxwxwxwxwxwx
1983-08-14 8.4 10.6 5.9 5.0 92.3- 4.7 3.3---- 0.0------------
1983-08-13 11.6 16.1 7.6 7.0 83.8- 8.0 8.0---- 10.5------------
1983-08-12 16.5 19.7 12.9 8.9 79.3- 2.7 3.0---- 0.0------------
1983-08-11 15.7 18.1 12.9 8.9 83.3- 6.7 1.7---- 21.5------------
1983-08-10 15.3 18.1 10.4 9.9 73.0- 2.7 2.7---- 0.0------------
1983-08-09 14.3 19.5 10.4 7.5 91.3- 4.0 2.3---- 4.6------------
1983-08-08 13.2 17.1 10.1 7.9 96.3- 7.3 1.7---- 15.5------------
1983-08-07 10.5 12.6 9.0 8.4 97.5- 7.7 1.3---- 8.9------------
1983-08-06 10.2 12.6 5.8 6.5 86.5- 7.0 1.7---- 4.4------------
1983-08-05 8.1 11.1 5.6 5.0 90.3- 6.7 0.7---- 0.0------------
1983-08-04 7.8 15.1 6.7 7.0 97.5- 8.0 3.3---- 6.4------------
1983-08-03 15.9 20.3 14.4 12.4 90.5- 5.3 2.7---- 7.8------------
1983-08-02 18.7 24.1 15.4 10.4 67.5- 6.0 2.7---- 10.1------------
1983-08-01 18.6 25.6 12.5 5.5 50.8- 0.0 2.0---- 0.0------------
1983-07-31 15.6 20.6 10.1 6.0 59.0- 0.0 1.3---- 0.0------------
1983-07-30 13.4 16.1 11.5 9.1 82.3- 6.3 2.7---- 0.0------------
1983-07-29 15.9 19.6 14.9 9.7 70.5- 6.0 3.0---- 0.8------------
1983-07-28 21.3 24.6 15.4 14.4 62.8- 4.0 3.3---- 0.0------------
1983-07-27 20.5 25.7 11.9 9.1 50.3- 0.0 3.3---- 0.0------------
1983-07-26 15.8 20.1 9.9 9.1 67.3- 3.7 3.3---- 0.0------------
1983-07-25 12.6 16.1 9.1 9.4 75.0- 4.3 4.7---- 0.0------------
1983-07-24 15.1 19.1 10.9 6.5 70.3- 2.3 6.0---- 0.0------------
1983-07-23 12.2 15.6 9.2 7.9 86.5- 6.3 6.0---- 0.0------------
1983-07-22 8.3 10.6 4.9 1.1 80.0- 8.0 8.0---- 10.8------------
1983-07-21 6.9 10.1 4.5 3.5 80.8- 5.7 2.3---- 1.1------------
1983-07-20 14.1 21.3 8.9 9.1 84.8- 4.7 7.0---- 4.6------------
1983-07-19 20.3 25.6 15.6 11.7 56.3- 2.0 6.7---- 0.0------------
1983-07-18 20.4 25.1 15.9 9.4 52.5- 0.3 1.7---- 0.8------------
1983-07-17 18.5 22.3 14.1 9.3 61.3- 1.3 1.3---- 0.0------------
1983-07-16 17.4 21.6 13.4 7.4 59.3- 1.3 4.0---- 0.0------------
1983-07-15 15.0 17.9 11.4 8.9 75.0- 1.0 2.0---- 0.0------------
1983-07-14 12.5 16.6 11.1 8.4 96.0- 8.0 2.3---- 98.6------------
1983-07-13 14.3 18.6 10.9 9.4 84.8- 7.0 3.0---- 2.8------------
1983-07-12 12.9 15.3 11.9 9.9 92.5- 7.0 1.3---- 78.6------------
1983-07-11 15.9 19.6 12.9 9.4 69.5- 5.3 1.0---- 10.7------------
1983-07-10 17.8 22.1 13.1 10.9 58.8- 2.0 3.3---- 0.0------------
1983-07-09 17.0 21.1 12.8 5.8 57.0- 1.0 4.0---- 0.0------------
1983-07-08 17.3 20.9 13.9 9.4 47.3- 0.0 1.3---- 0.0------------
1983-07-07 19.0 23.6 15.4 10.4 62.3- 2.3 2.0---- 0.0------------
1983-07-06 17.8 22.3 12.9 11.4 57.8- 3.0 2.0---- 0.0------------
1983-07-05 16.7 21.1 12.6 9.4 59.0- 2.7 2.0---- 0.0------------
1983-07-04 16.0 20.1 11.5 6.5 62.3- 2.3 2.3---- 0.0------------
1983-07-03 14.9 18.6 8.5 10.9 75.3- 4.3 3.3---- 0.2------------
1983-07-02 13.9 15.6 8.3 10.1 91.3- 8.0 2.3---- 0.0------------
1983-07-01 15.0 19.9 8.0 4.5 71.3- 5.0 2.3---- 5.7------------
1983-06-30 13.1 18.1 7.2 0.9 62.3- 1.7 3.0---- 0.0------------
1983-06-29 8.9 13.1 6.0 5.0 78.8- 7.7 3.0---- 0.0------------
1983-06-28 12.3 17.3 9.4 8.9 91.5- 7.7 1.7---- 7.7------------
1983-06-27 16.5 23.1 13.9 7.7 65.8- 4.3 12.0---- 13.5------------
1983-06-26 16.5 20.7 10.7 7.0 77.0- 6.7 10.0---- 4.8------------
1983-06-25 16.4 22.3 10.9 5.0 65.5- 1.0 4.0---- 0.0------------
1983-06-24 15.2 20.6 9.5 2.5 51.0- 0.7 2.3---- 0.0------------
1983-06-23 10.8 16.6 4.6 -1.7 60.8- 0.0 3.7---- 0.0------------
1983-06-22 11.4 16.7 8.9 7.0 79.0- 2.7 4.3---- 0.0------------
1983-06-21 14.2 18.6 11.4 7.5 85.0- 3.3 4.0---- 0.0------------
1983-06-20 12.8 14.5 11.1 9.4 96.3- 7.7 2.7---- 0.8------------
1983-06-19 9.2 12.1 5.2 6.5 97.5- 8.0 1.7---- 56.3------------
1983-06-18 6.5 8.1 5.1 4.8 98.8- 8.0 1.7---- 34.0------------
1983-06-17 5.6 6.1 4.3 5.0 98.0- 8.0 2.7---- 23.8------------
1983-06-16 5.6 9.1 4.8 4.8 97.3- 8.0 1.3---- 22.8------------
401.7 ms

 

Źródłem pochodzenia danych jest Instytut Meteorologii i Gospodarki Wodnej – Państwowy Instytut Badawczy. Dane Instytutu Meteorologii i Gospodarki Wodnej – Państwowego Instytutu Badawczego zostały przetworzone.

Dane źródłowe można odnaleźć na stronie https://dane.imgw.pl